createdAt,value
2018-05-18T00:01:48.502Z,96316.88
2018-05-18T00:04:18.029Z,96319.03
2018-05-18T00:06:47.549Z,96312.20
2018-05-18T00:09:17.086Z,96305.55
2018-05-18T00:11:46.896Z,96314.53
2018-05-18T00:14:17.183Z,96315.91
2018-05-18T00:16:46.716Z,96319.78
2018-05-18T00:19:16.242Z,96317.84
2018-05-18T00:21:45.752Z,96316.43
2018-05-18T00:24:15.681Z,96319.58
2018-05-18T00:26:45.612Z,96308.08
2018-05-18T00:29:15.148Z,96311.00
2018-05-18T00:31:44.669Z,96308.04
2018-05-18T00:34:14.216Z,96306.93
2018-05-18T00:36:44.124Z,96303.20
2018-05-18T00:39:14.036Z,96305.39
2018-05-18T00:41:43.964Z,96304.59
2018-05-18T00:44:13.934Z,96308.88
2018-05-18T00:46:43.461Z,96305.91
2018-05-18T00:49:12.993Z,96303.45
2018-05-18T00:51:42.550Z,96299.56
2018-05-18T00:54:12.080Z,96295.16
2018-05-18T00:56:41.674Z,96295.85
2018-05-18T00:59:11.324Z,96297.37
2018-05-18T01:01:40.858Z,96295.67
2018-05-18T01:04:10.407Z,96290.23
2018-05-18T01:06:40.131Z,96301.75
2018-05-18T01:09:10.073Z,96299.58
2018-05-18T01:11:39.640Z,96295.11
2018-05-18T01:14:09.164Z,96295.70
2018-05-18T01:16:39.086Z,96294.90
2018-05-18T01:19:08.998Z,96292.27
2018-05-18T01:21:38.918Z,96289.95
2018-05-18T01:24:08.469Z,96294.27
2018-05-18T01:26:38.008Z,96289.77
2018-05-18T01:29:07.538Z,96290.75
2018-05-18T01:31:37.082Z,96287.20
2018-05-18T01:34:06.634Z,96278.21
2018-05-18T01:36:36.600Z,96283.27
2018-05-18T01:39:06.194Z,96282.34
2018-05-18T01:41:35.747Z,96284.69
2018-05-18T01:44:05.125Z,96283.47
2018-05-18T01:46:34.646Z,96287.30
2018-05-18T01:49:04.218Z,96283.55
2018-05-18T01:51:33.750Z,96285.83
2018-05-18T01:54:03.288Z,96283.91
2018-05-18T01:56:32.818Z,96285.16
2018-05-18T01:59:02.358Z,96279.89
2018-05-18T02:01:31.883Z,96288.61
2018-05-18T02:04:01.422Z,96281.80
2018-05-18T02:06:31.342Z,96286.56
2018-05-18T02:09:01.338Z,96284.24
2018-05-18T02:11:30.863Z,96287.88
2018-05-18T02:14:00.801Z,96284.17
2018-05-18T02:16:30.394Z,96283.18
2018-05-18T02:19:00.326Z,96291.84
2018-05-18T02:21:29.872Z,96296.13
2018-05-18T02:23:59.388Z,96299.64
2018-05-18T02:26:28.910Z,96294.58
2018-05-18T02:28:58.436Z,96300.26
2018-05-18T02:31:28.356Z,96294.38
2018-05-18T02:33:57.876Z,96290.02
2018-05-18T02:36:27.418Z,96284.16
2018-05-18T02:38:56.949Z,96287.52
2018-05-18T02:41:26.875Z,96282.14
2018-05-18T02:43:56.817Z,96289.85
2018-05-18T02:46:26.339Z,96284.65
2018-05-18T02:48:55.870Z,96277.84
2018-05-18T02:51:25.414Z,96276.52
2018-05-18T02:53:55.112Z,96283.58
2018-05-18T02:56:25.094Z,96277.70
2018-05-18T02:58:54.622Z,96282.41
2018-05-18T03:01:24.174Z,96281.64
2018-05-18T03:03:53.700Z,96286.15
2018-05-18T03:06:23.231Z,96286.14
2018-05-18T03:08:52.773Z,96286.53
2018-05-18T03:11:22.361Z,96283.80
2018-05-18T03:13:51.898Z,96283.61
2018-05-18T03:16:21.493Z,96280.09
2018-05-18T03:18:51.424Z,96282.45
2018-05-18T03:21:20.964Z,96281.66
2018-05-18T03:23:50.498Z,96273.44
2018-05-18T03:26:20.026Z,96276.17
2018-05-18T03:28:49.946Z,96279.69
2018-05-18T03:31:19.546Z,96281.26
2018-05-18T03:33:49.470Z,96283.00
2018-05-18T03:36:19.098Z,96288.66
2018-05-18T03:38:48.672Z,96281.64
2018-05-18T03:41:18.584Z,96279.88
2018-05-18T03:43:48.518Z,96276.94
2018-05-18T03:46:18.436Z,96281.42
2018-05-18T03:48:47.978Z,96285.72
2018-05-18T03:51:17.721Z,96283.94
2018-05-18T03:53:47.284Z,96281.83
2018-05-18T03:56:16.820Z,96285.73
2018-05-18T03:58:46.378Z,96284.36
2018-05-18T04:01:32.816Z,96283.18
2018-05-18T04:04:19.199Z,96287.70
2018-05-18T04:07:05.635Z,96289.82
2018-05-18T04:09:35.162Z,96289.04
2018-05-18T04:12:04.716Z,96291.17
2018-05-18T04:14:34.738Z,96292.95
2018-05-18T04:17:04.311Z,96294.91
2018-05-18T04:19:34.346Z,96290.23
2018-05-18T04:22:03.891Z,96296.29
2018-05-18T04:24:33.410Z,96306.64
2018-05-18T04:27:03.050Z,96301.77
2018-05-18T04:29:33.015Z,96306.81
2018-05-18T04:32:02.236Z,96297.67
2018-05-18T04:34:31.752Z,96299.63
2018-05-18T04:37:01.317Z,96296.30
2018-05-18T04:39:31.059Z,96297.64
2018-05-18T04:42:00.680Z,96304.06
2018-05-18T04:44:30.225Z,96303.48
2018-05-18T04:46:59.775Z,96301.75
2018-05-18T04:49:29.290Z,96307.62
2018-05-18T04:51:58.819Z,96306.82
2018-05-18T04:54:28.781Z,96306.05
2018-05-18T04:56:58.535Z,96304.09
2018-05-18T04:59:28.485Z,96306.23
2018-05-18T05:01:58.042Z,96310.73
2018-05-18T05:04:27.579Z,96314.81
2018-05-18T05:06:57.518Z,96315.19
2018-05-18T05:09:27.047Z,96316.34
2018-05-18T05:11:56.569Z,96312.44
2018-05-18T05:14:26.103Z,96313.25
2018-05-18T05:16:56.071Z,96312.06
2018-05-18T05:19:25.615Z,96314.59
2018-05-18T05:21:55.168Z,96313.98
2018-05-18T05:24:24.711Z,96315.74
2018-05-18T05:26:54.261Z,96314.77
2018-05-18T05:29:23.787Z,96319.46
2018-05-18T05:31:53.351Z,96314.59
2018-05-18T05:34:22.890Z,96317.69
2018-05-18T05:36:52.425Z,96325.69
2018-05-18T05:39:21.947Z,96321.20
2018-05-18T05:41:51.477Z,96323.52
2018-05-18T05:44:21.443Z,96332.53
2018-05-18T05:46:51.079Z,96323.73
2018-05-18T05:49:20.696Z,96330.38
2018-05-18T05:51:50.265Z,96331.36
2018-05-18T05:54:19.816Z,96329.02
2018-05-18T05:56:49.547Z,96329.81
2018-05-18T05:59:19.464Z,96329.04
2018-05-18T06:01:49.736Z,96332.95
2018-05-18T06:04:19.306Z,96335.51
2018-05-18T06:06:48.843Z,96329.82
2018-05-18T06:09:18.381Z,96331.00
2018-05-18T06:11:48.003Z,96329.45
2018-05-18T06:14:17.702Z,96329.66
2018-05-18T06:16:47.365Z,96329.86
2018-05-18T06:19:16.902Z,96337.84
2018-05-18T06:21:46.439Z,96333.36
2018-05-18T06:24:16.175Z,96340.77
2018-05-18T06:26:45.733Z,96339.80
2018-05-18T06:29:15.278Z,96341.55
2018-05-18T06:31:44.803Z,96340.39
2018-05-18T06:34:14.329Z,96343.48
2018-05-18T06:36:43.858Z,96347.20
2018-05-18T06:39:13.382Z,96351.48
2018-05-18T06:41:42.929Z,96345.64
2018-05-18T06:44:12.481Z,96346.20
2018-05-18T06:46:42.012Z,96349.34
2018-05-18T06:49:11.730Z,96353.45
2018-05-18T06:51:41.654Z,96345.45
2018-05-18T06:54:10.934Z,96350.50
2018-05-18T06:56:40.853Z,96350.89
2018-05-18T06:59:10.882Z,96358.06
2018-05-18T07:01:40.463Z,96357.86
2018-05-18T07:04:10.042Z,96349.56
2018-05-18T07:06:40.139Z,96349.71
2018-05-18T07:09:09.723Z,96349.34
2018-05-18T07:11:39.249Z,96350.51
2018-05-18T07:14:09.378Z,96355.37
2018-05-18T07:16:38.966Z,96352.13
2018-05-18T07:19:09.085Z,96349.13
2018-05-18T07:21:38.625Z,96351.47
2018-05-18T07:24:08.223Z,96351.30
2018-05-18T07:26:37.749Z,96358.50
2018-05-18T07:29:07.265Z,96352.41
2018-05-18T07:31:36.803Z,96355.40
2018-05-18T07:34:06.803Z,96347.47
2018-05-18T07:36:36.375Z,96341.05
2018-05-18T07:39:04.999Z,96341.50
2018-05-18T07:41:34.929Z,96347.38
2018-05-18T07:44:04.670Z,96349.35
2018-05-18T07:46:34.234Z,96347.26
2018-05-18T07:49:04.158Z,96346.51
2018-05-18T07:51:33.706Z,96348.29
2018-05-18T07:54:03.230Z,96351.03
2018-05-18T07:56:32.787Z,96354.56
2018-05-18T07:59:02.338Z,96356.32
2018-05-18T08:01:31.860Z,96352.14
2018-05-18T08:04:01.429Z,96350.33
2018-05-18T08:06:30.977Z,96351.76
2018-05-18T08:09:00.507Z,96359.06
2018-05-18T08:11:30.447Z,96354.73
2018-05-18T08:13:59.995Z,96348.22
2018-05-18T08:16:29.517Z,96349.22
2018-05-18T08:18:59.073Z,96353.88
2018-05-18T08:21:28.644Z,96348.11
2018-05-18T08:23:58.618Z,96345.58
2018-05-18T08:26:28.135Z,96343.08
2018-05-18T08:29:14.546Z,96346.75
2018-05-18T08:31:44.062Z,96345.98
2018-05-18T08:34:13.586Z,96337.06
2018-05-18T08:36:43.529Z,96337.47
2018-05-18T08:39:13.116Z,96344.92
2018-05-18T08:41:42.768Z,96338.48
2018-05-18T08:44:12.514Z,96340.37
2018-05-18T08:46:42.046Z,96342.23
2018-05-18T08:49:11.961Z,96344.27
2018-05-18T08:51:41.952Z,96346.33
2018-05-18T08:54:11.524Z,96347.40
2018-05-18T08:56:41.095Z,96344.19
2018-05-18T08:59:10.635Z,96348.50
2018-05-18T09:01:40.191Z,96340.17
2018-05-18T09:04:10.142Z,96341.67
2018-05-18T09:06:39.660Z,96339.91
2018-05-18T09:09:09.182Z,96338.56
2018-05-18T09:11:38.743Z,96331.20
2018-05-18T09:14:08.668Z,96329.68
2018-05-18T09:16:38.211Z,96327.03
2018-05-18T09:19:08.225Z,96337.34
2018-05-18T09:21:37.774Z,96329.48
2018-05-18T09:24:07.724Z,96324.34
2018-05-18T09:26:37.254Z,96332.53
2018-05-18T09:29:06.774Z,96331.06
2018-05-18T09:31:36.304Z,96328.11
2018-05-18T09:34:05.953Z,96323.57
2018-05-18T09:36:35.628Z,96326.27
2018-05-18T09:39:04.400Z,96321.76
2018-05-18T09:41:33.999Z,96318.73
2018-05-18T09:44:03.712Z,96326.17
2018-05-18T09:46:33.288Z,96332.67
2018-05-18T09:49:02.836Z,96332.18
2018-05-18T09:51:33.000Z,96331.17
2018-05-18T09:54:02.551Z,96331.03
2018-05-18T09:56:33.012Z,96334.00
2018-05-18T09:59:02.974Z,96330.53
2018-05-18T10:01:32.502Z,96332.31
2018-05-18T10:04:02.040Z,96326.91
2018-05-18T10:06:31.962Z,96325.83
2018-05-18T10:09:01.888Z,96331.56
2018-05-18T10:11:31.408Z,96330.00
2018-05-18T10:14:01.045Z,96325.14
2018-05-18T10:16:31.170Z,96334.07
2018-05-18T10:19:00.687Z,96325.83
2018-05-18T10:21:30.229Z,96331.09
2018-05-18T10:23:59.735Z,96329.62
2018-05-18T10:26:29.252Z,96322.66
2018-05-18T10:28:58.773Z,96328.62
2018-05-18T10:31:28.365Z,96322.31
2018-05-18T10:33:58.441Z,96315.52
2018-05-18T10:36:27.961Z,96315.70
2018-05-18T10:38:57.679Z,96318.28
2018-05-18T10:41:27.597Z,96309.80
2018-05-18T10:43:57.519Z,96316.02
2018-05-18T10:46:27.076Z,96307.13
2018-05-18T10:48:56.608Z,96307.48
2018-05-18T10:51:26.132Z,96304.92
2018-05-18T10:53:56.059Z,96299.09
2018-05-18T10:56:25.584Z,96305.81
2018-05-18T10:58:55.124Z,96301.90
2018-05-18T11:01:24.639Z,96299.79
2018-05-18T11:03:54.146Z,96307.63
2018-05-18T11:06:23.677Z,96307.61
2018-05-18T11:08:53.608Z,96303.80
2018-05-18T11:11:23.138Z,96286.67
2018-05-18T11:13:52.704Z,96284.92
2018-05-18T11:16:22.439Z,96285.18
2018-05-18T11:18:51.714Z,96282.85
2018-05-18T11:21:21.638Z,96284.67
2018-05-18T11:23:51.544Z,96277.98
2018-05-18T11:26:21.523Z,96271.70
2018-05-18T11:28:51.221Z,96274.02
2018-05-18T11:31:20.741Z,96267.35
2018-05-18T11:33:50.267Z,96263.85
2018-05-18T11:36:19.805Z,96260.73
2018-05-18T11:38:49.359Z,96250.87
2018-05-18T11:41:18.910Z,96252.66
2018-05-18T11:43:48.435Z,96252.94
2018-05-18T11:46:18.324Z,96250.22
2018-05-18T11:48:48.446Z,96246.47
2018-05-18T11:51:18.552Z,96243.45
2018-05-18T11:53:48.659Z,96241.58
2018-05-18T11:56:18.813Z,96238.41
2018-05-18T11:58:48.936Z,96239.61
2018-05-18T12:01:18.503Z,96238.44
2018-05-18T12:03:48.074Z,96236.63
2018-05-18T12:06:17.632Z,96231.04
2018-05-18T12:08:47.575Z,96220.13
2018-05-18T12:11:17.688Z,96225.44
2018-05-18T12:13:47.876Z,96226.03
2018-05-18T12:16:17.974Z,96226.14
2018-05-18T12:18:47.520Z,96218.55
2018-05-18T12:21:17.818Z,96221.28
2018-05-18T12:23:47.924Z,96217.17
2018-05-18T12:26:18.041Z,96213.45
2018-05-18T12:28:48.535Z,96204.80
2018-05-18T12:31:18.049Z,96209.80
2018-05-18T12:33:48.145Z,96210.38
2018-05-18T12:36:18.237Z,96195.20
2018-05-18T12:38:48.575Z,96195.97
2018-05-18T12:41:18.113Z,96198.19
2018-05-18T12:43:48.343Z,96190.36
2018-05-18T12:46:20.127Z,96179.99
2018-05-18T12:48:50.622Z,96177.79
2018-05-18T12:51:20.175Z,96173.34
2018-05-18T12:53:49.707Z,96169.15
2018-05-18T12:56:19.285Z,96167.22
2018-05-18T12:58:49.765Z,96169.86
2018-05-18T13:01:19.907Z,96176.13
2018-05-18T13:03:49.987Z,96174.02
2018-05-18T13:06:20.073Z,96174.41
2018-05-18T13:08:50.259Z,96166.31
2018-05-18T13:11:20.372Z,96171.34
2018-05-18T13:13:50.158Z,96161.69
2018-05-18T13:16:20.275Z,96159.20
2018-05-18T13:18:50.422Z,96152.82
2018-05-18T13:21:20.515Z,96159.16
2018-05-18T13:23:50.605Z,96159.21
2018-05-18T13:26:21.071Z,96157.41
2018-05-18T13:28:51.943Z,96152.87
2018-05-18T13:31:22.039Z,96154.12
2018-05-18T13:33:52.177Z,96143.86
2018-05-18T13:36:22.259Z,96145.45
2018-05-18T13:38:52.589Z,96137.39
2018-05-18T13:41:22.659Z,96133.76
2018-05-18T13:43:53.158Z,96131.84
2018-05-18T13:46:23.807Z,96128.81
2018-05-18T13:48:53.907Z,96125.12
2018-05-18T13:51:24.011Z,96115.14
2018-05-18T13:53:54.129Z,96117.72
2018-05-18T13:56:24.219Z,96112.95
2018-05-18T13:58:54.303Z,96109.96
2018-05-18T14:01:24.387Z,96109.84
2018-05-18T14:03:54.557Z,96114.56
2018-05-18T14:06:24.763Z,96104.83
2018-05-18T14:08:55.289Z,96104.17
2018-05-18T14:11:25.383Z,96100.64
2018-05-18T14:13:55.467Z,96097.67
2018-05-18T14:16:25.593Z,96095.39
2018-05-18T14:18:55.687Z,96099.77
2018-05-18T14:21:26.175Z,96101.63
2018-05-18T14:23:56.307Z,96099.05
2018-05-18T14:26:26.434Z,96093.16
2018-05-18T14:28:56.715Z,96096.86
2018-05-18T14:31:26.791Z,96096.83
2018-05-18T14:33:56.934Z,96094.48
2018-05-18T14:36:27.031Z,96097.89
2018-05-18T14:38:57.123Z,96097.68
2018-05-18T14:41:27.229Z,96096.58
2018-05-18T14:43:57.401Z,96095.29
2018-05-18T14:46:28.062Z,96093.59
2018-05-18T14:48:58.181Z,96099.49
2018-05-18T14:51:28.339Z,96084.69
2018-05-18T14:53:58.477Z,96083.36
2018-05-18T14:56:29.043Z,96085.91
2018-05-18T14:58:59.987Z,96083.02
2018-05-18T15:01:30.103Z,96084.65
2018-05-18T15:04:00.205Z,96078.16
2018-05-18T15:06:31.213Z,96077.33
2018-05-18T15:09:02.172Z,96081.00
2018-05-18T15:11:32.445Z,96077.14
2018-05-18T15:14:02.511Z,96081.11
2018-05-18T15:16:32.599Z,96083.55
2018-05-18T15:19:02.689Z,96072.00
2018-05-18T15:21:32.769Z,96075.41
2018-05-18T15:24:02.885Z,96077.75
2018-05-18T15:26:33.013Z,96071.11
2018-05-18T15:29:03.089Z,96074.02
2018-05-18T15:31:33.179Z,96072.49
2018-05-18T15:34:03.267Z,96073.02
2018-05-18T15:36:33.355Z,96071.51
2018-05-18T15:39:03.211Z,96069.83
2018-05-18T15:41:33.711Z,96077.71
2018-05-18T15:44:03.151Z,96073.38
2018-05-18T15:46:33.356Z,96075.15
2018-05-18T15:49:03.489Z,96091.29
2018-05-18T15:51:33.993Z,96070.73
2018-05-18T15:54:03.558Z,96079.98
2018-05-18T15:56:33.105Z,96073.13
2018-05-18T15:59:02.640Z,96072.23
2018-05-18T16:01:32.212Z,96063.87
2018-05-18T16:04:01.761Z,96074.45
2018-05-18T16:06:31.296Z,96060.80
2018-05-18T16:09:00.836Z,96070.94
2018-05-18T16:11:30.371Z,96070.47
2018-05-18T16:13:59.941Z,96072.08
2018-05-18T16:16:29.899Z,96071.08
2018-05-18T16:19:00.389Z,96071.33
2018-05-18T16:21:29.921Z,96071.59
2018-05-18T16:24:00.414Z,96064.38
2018-05-18T16:26:30.488Z,96065.46
2018-05-18T16:29:00.997Z,96070.55
2018-05-18T16:31:30.526Z,96075.05
2018-05-18T16:34:00.055Z,96077.00
2018-05-18T16:36:30.165Z,96073.47
2018-05-18T16:39:00.249Z,96072.14
2018-05-18T16:41:29.781Z,96084.36
2018-05-18T16:43:59.304Z,96076.95
2018-05-18T16:46:28.867Z,96078.72
2018-05-18T16:48:58.384Z,96087.16
2018-05-18T16:51:27.919Z,96087.77
2018-05-18T16:53:57.559Z,96083.59
2018-05-18T16:56:27.513Z,96088.27
2018-05-18T16:58:57.045Z,96088.47
2018-05-18T17:01:26.599Z,96089.75
2018-05-18T17:03:56.158Z,96094.61
2018-05-18T17:06:25.678Z,96101.03
2018-05-18T17:08:55.418Z,96089.38
2018-05-18T17:11:24.961Z,96097.28
2018-05-18T17:13:54.496Z,96100.36
2018-05-18T17:16:24.123Z,96107.91
2018-05-18T17:18:54.042Z,96104.54
2018-05-18T17:21:23.954Z,96107.27
2018-05-18T17:23:53.881Z,96112.09
2018-05-18T17:26:23.422Z,96115.84
2018-05-18T17:28:52.958Z,96108.37
2018-05-18T17:31:22.482Z,96109.50
2018-05-18T17:33:52.415Z,96113.30
2018-05-18T17:36:22.341Z,96108.30
2018-05-18T17:38:51.913Z,96109.80
2018-05-18T17:41:21.541Z,96110.47
2018-05-18T17:43:51.455Z,96116.39
2018-05-18T17:46:21.395Z,96115.22
2018-05-18T17:48:50.591Z,96121.41
2018-05-18T17:51:20.695Z,96113.02
2018-05-18T17:53:50.617Z,96112.52
2018-05-18T17:56:20.133Z,96108.72
2018-05-18T17:58:49.845Z,96115.07
2018-05-18T18:01:19.364Z,96115.82
2018-05-18T18:03:48.921Z,96118.41
2018-05-18T18:06:18.613Z,96110.38
2018-05-18T18:08:48.161Z,96107.88
2018-05-18T18:11:17.704Z,96106.98
2018-05-18T18:13:47.228Z,96107.67
2018-05-18T18:16:16.781Z,96105.26
2018-05-18T18:18:46.306Z,96110.41
2018-05-18T18:21:16.040Z,96108.48
2018-05-18T18:23:45.551Z,96112.91
2018-05-18T18:26:15.081Z,96121.03
2018-05-18T18:28:44.606Z,96117.50
2018-05-18T18:31:14.519Z,96110.37
2018-05-18T18:33:44.440Z,96115.92
2018-05-18T18:36:14.371Z,96118.80
2018-05-18T18:38:44.487Z,96119.39
2018-05-18T18:41:14.007Z,96134.13
2018-05-18T18:43:43.527Z,96130.91
2018-05-18T18:46:13.065Z,96131.65
2018-05-18T18:48:42.631Z,96142.62
2018-05-18T18:51:12.163Z,96134.95
2018-05-18T18:53:41.812Z,96141.97
2018-05-18T18:56:11.727Z,96141.91
2018-05-18T18:58:41.676Z,96142.64
2018-05-18T19:01:11.781Z,96147.09
2018-05-18T19:03:41.306Z,96148.05
2018-05-18T19:06:10.830Z,96149.94
2018-05-18T19:08:40.371Z,96142.66
2018-05-18T19:11:10.302Z,96152.88
2018-05-18T19:13:39.892Z,96148.05
2018-05-18T19:16:09.813Z,96156.98
2018-05-18T19:18:39.721Z,96153.16
2018-05-18T19:21:09.646Z,96158.23
2018-05-18T19:23:40.177Z,96159.30
2018-05-18T19:26:10.088Z,96162.47
2018-05-18T19:28:39.995Z,96166.94
2018-05-18T19:31:09.586Z,96164.88
2018-05-18T19:33:39.126Z,96167.69
2018-05-18T19:36:09.034Z,96168.13
2018-05-18T19:38:38.991Z,96166.36
2018-05-18T19:41:09.170Z,96172.40
2018-05-18T19:43:39.114Z,96174.02
2018-05-18T19:46:09.258Z,96180.01
2018-05-18T19:48:38.825Z,96175.88
2018-05-18T19:51:08.757Z,96179.33
2018-05-18T19:53:38.306Z,96181.00
2018-05-18T19:56:07.826Z,96180.89
2018-05-18T19:58:37.365Z,96182.41
2018-05-18T20:01:07.194Z,96180.93
2018-05-18T20:03:36.774Z,96184.02
2018-05-18T20:06:06.458Z,96189.77
2018-05-18T20:08:35.988Z,96190.98
2018-05-18T20:11:05.912Z,96191.14
2018-05-18T20:13:35.882Z,96189.43
2018-05-18T20:16:05.446Z,96194.34
2018-05-18T20:18:34.964Z,96186.05
2018-05-18T20:21:04.538Z,96183.69
2018-05-18T20:23:34.438Z,96180.36
2018-05-18T20:26:03.952Z,96184.73
2018-05-18T20:28:33.913Z,96190.12
2018-05-18T20:31:03.449Z,96185.25
2018-05-18T20:33:33.161Z,96185.30
2018-05-18T20:36:02.760Z,96181.91
2018-05-18T20:38:32.451Z,96179.22
2018-05-18T20:41:02.046Z,96174.94
2018-05-18T20:43:31.561Z,96183.47
2018-05-18T20:46:01.085Z,96179.24
2018-05-18T20:48:30.670Z,96176.75
2018-05-18T20:51:00.198Z,96178.69
2018-05-18T20:53:29.751Z,96188.59
2018-05-18T20:55:59.672Z,96193.80
2018-05-18T20:58:29.606Z,96190.48
2018-05-18T21:00:59.329Z,96184.31
2018-05-18T21:03:28.837Z,96186.11
2018-05-18T21:05:58.592Z,96188.73
2018-05-18T21:08:28.150Z,96189.52
2018-05-18T21:10:57.730Z,96186.12
2018-05-18T21:13:27.286Z,96189.37
2018-05-18T21:15:56.841Z,96200.95
2018-05-18T21:18:26.789Z,96197.32
2018-05-18T21:20:56.556Z,96198.30
2018-05-18T21:23:26.108Z,96193.13
2018-05-18T21:25:55.642Z,96200.34
2018-05-18T21:28:25.170Z,96196.11
2018-05-18T21:30:54.740Z,96194.77
2018-05-18T21:33:24.286Z,96205.66
2018-05-18T21:35:53.486Z,96203.13
2018-05-18T21:38:23.422Z,96202.02
2018-05-18T21:40:53.392Z,96207.33
2018-05-18T21:43:22.909Z,96207.23
2018-05-18T21:45:52.456Z,96202.36
2018-05-18T21:48:23.653Z,96203.84
2018-05-18T21:50:53.225Z,96199.48
2018-05-18T21:53:22.739Z,96205.47
2018-05-18T21:55:52.313Z,96203.45
2018-05-18T21:58:22.231Z,96204.77
2018-05-18T22:00:51.804Z,96204.08
2018-05-18T22:03:21.482Z,96200.09
2018-05-18T22:05:51.021Z,96202.78
2018-05-18T22:08:20.546Z,96207.67
2018-05-18T22:10:50.499Z,96206.92
2018-05-18T22:13:20.042Z,96206.30
2018-05-18T22:15:49.576Z,96198.36
2018-05-18T22:18:19.496Z,96203.48
2018-05-18T22:20:49.434Z,96203.63
2018-05-18T22:23:18.978Z,96196.95
2018-05-18T22:25:48.510Z,96197.36
2018-05-18T22:28:18.028Z,96201.53
2018-05-18T22:30:47.953Z,96199.58
2018-05-18T22:33:18.126Z,96200.84
2018-05-18T22:35:47.652Z,96201.64
2018-05-18T22:38:17.166Z,96205.48
2018-05-18T22:40:47.120Z,96208.39
2018-05-18T22:43:16.649Z,96204.27
2018-05-18T22:45:46.174Z,96204.69
2018-05-18T22:48:15.800Z,96210.89
2018-05-18T22:50:45.362Z,96203.55
2018-05-18T22:53:14.894Z,96199.89
2018-05-18T22:55:44.479Z,96204.29
2018-05-18T22:58:14.046Z,96202.75
2018-05-18T23:00:43.960Z,96205.66
2018-05-18T23:03:13.884Z,96204.07
2018-05-18T23:05:43.811Z,96215.14
2018-05-18T23:08:13.342Z,96207.17
2018-05-18T23:10:42.900Z,96202.58
2018-05-18T23:13:12.826Z,96207.88
2018-05-18T23:15:42.786Z,96204.34
2018-05-18T23:18:12.876Z,96197.25
2018-05-18T23:20:42.407Z,96199.97
2018-05-18T23:23:11.922Z,96197.86
2018-05-18T23:25:41.488Z,96197.25
2018-05-18T23:28:11.252Z,96192.26
2018-05-18T23:30:40.790Z,96195.17
2018-05-18T23:33:10.731Z,96196.80
2018-05-18T23:35:40.250Z,96185.67
2018-05-18T23:38:09.791Z,96187.41
2018-05-18T23:40:39.324Z,96184.30
2018-05-18T23:43:09.248Z,96189.56
2018-05-18T23:45:39.194Z,96186.86
2018-05-18T23:48:08.726Z,96184.09
2018-05-18T23:50:38.252Z,96178.74
2018-05-18T23:53:07.764Z,96179.95
2018-05-18T23:55:37.684Z,96181.03
2018-05-18T23:58:07.618Z,96178.91
